createdAt,value
2023-01-27T00:00:35.398Z,62.30
2023-01-27T00:01:35.373Z,57.20
2023-01-27T00:02:38.187Z,60.20
2023-01-27T00:03:35.414Z,56.60
2023-01-27T00:04:35.351Z,61.60
2023-01-27T00:05:35.324Z,61.50
2023-01-27T00:06:35.307Z,61.70
2023-01-27T00:07:35.317Z,65.50
2023-01-27T00:08:35.288Z,58.70
2023-01-27T00:09:35.285Z,64.70
2023-01-27T00:10:35.261Z,61.40
2023-01-27T00:11:35.250Z,66.00
2023-01-27T00:12:35.231Z,63.90
2023-01-27T00:13:35.231Z,67.40
2023-01-27T00:14:35.235Z,63.00
2023-01-27T00:15:35.270Z,65.30
2023-01-27T00:16:35.183Z,63.70
2023-01-27T00:17:35.168Z,66.80
2023-01-27T00:18:35.159Z,80.50
2023-01-27T00:19:35.160Z,71.80
2023-01-27T00:20:35.130Z,79.70
2023-01-27T00:21:35.129Z,89.50
2023-01-27T00:22:35.104Z,80.70
2023-01-27T00:23:35.191Z,83.50
2023-01-27T00:24:35.100Z,95.30
2023-01-27T00:25:35.062Z,78.10
2023-01-27T00:26:35.053Z,75.60
2023-01-27T00:27:36.602Z,74.80
2023-01-27T00:28:35.033Z,75.20
2023-01-27T00:29:35.041Z,71.00
2023-01-27T00:30:35.050Z,70.50
2023-01-27T00:31:35.004Z,83.10
2023-01-27T00:32:34.981Z,72.00
2023-01-27T00:33:34.962Z,72.00
2023-01-27T00:34:34.965Z,76.40
2023-01-27T00:35:34.959Z,76.30
2023-01-27T00:36:34.925Z,74.80
2023-01-27T00:37:34.922Z,75.10
2023-01-27T00:38:34.905Z,71.50
2023-01-27T00:39:34.908Z,82.90
2023-01-27T00:40:34.885Z,84.30
2023-01-27T00:41:34.858Z,86.30
2023-01-27T00:42:34.847Z,76.50
2023-01-27T00:43:34.833Z,86.20
2023-01-27T00:44:34.826Z,77.30
2023-01-27T00:45:34.822Z,78.70
2023-01-27T00:46:34.981Z,78.60
2023-01-27T00:47:34.789Z,75.30
2023-01-27T00:48:34.774Z,75.80
2023-01-27T00:49:34.767Z,72.00
2023-01-27T00:50:34.785Z,79.60
2023-01-27T00:51:34.745Z,82.70
2023-01-27T00:52:34.724Z,76.50
2023-01-27T00:53:34.706Z,72.50
2023-01-27T00:54:34.701Z,72.30
2023-01-27T00:55:34.724Z,81.60
2023-01-27T00:56:34.675Z,79.10
2023-01-27T00:57:34.653Z,76.90
2023-01-27T00:58:34.637Z,74.10
2023-01-27T00:59:34.631Z,80.60
2023-01-27T01:00:34.643Z,83.00
2023-01-27T01:01:34.662Z,72.50
2023-01-27T01:02:34.613Z,77.30
2023-01-27T01:03:34.578Z,78.00
2023-01-27T01:04:34.569Z,71.40
2023-01-27T01:05:34.566Z,77.90
2023-01-27T01:06:34.550Z,80.50
2023-01-27T01:07:34.539Z,73.90
2023-01-27T01:08:34.513Z,78.90
2023-01-27T01:09:34.501Z,74.50
2023-01-27T01:10:34.505Z,77.50
2023-01-27T01:11:34.535Z,80.30
2023-01-27T01:12:34.466Z,75.90
2023-01-27T01:13:34.452Z,70.80
2023-01-27T01:14:34.439Z,78.50
2023-01-27T01:15:34.439Z,76.30
2023-01-27T01:16:34.422Z,74.90
2023-01-27T01:17:34.398Z,73.30
2023-01-27T01:18:34.387Z,68.20
2023-01-27T01:19:34.372Z,72.50
2023-01-27T01:20:34.372Z,68.60
2023-01-27T01:21:34.378Z,67.80
2023-01-27T01:22:34.332Z,75.00
2023-01-27T01:23:34.323Z,66.90
2023-01-27T01:24:34.306Z,69.40
2023-01-27T01:25:34.313Z,79.10
2023-01-27T01:26:34.286Z,83.40
2023-01-27T01:27:34.288Z,75.10
2023-01-27T01:28:34.260Z,70.80
2023-01-27T01:29:34.248Z,69.60
2023-01-27T01:30:34.328Z,75.30
2023-01-27T01:31:34.275Z,71.20
2023-01-27T01:32:34.209Z,71.60
2023-01-27T01:33:34.190Z,72.80
2023-01-27T01:34:34.176Z,72.60
2023-01-27T01:35:34.181Z,69.40
2023-01-27T01:36:34.154Z,69.90
2023-01-27T01:37:34.142Z,67.30
2023-01-27T01:38:34.154Z,64.90
2023-01-27T01:39:34.111Z,69.00
2023-01-27T01:40:34.334Z,64.70
2023-01-27T01:41:34.089Z,60.80
2023-01-27T01:42:34.075Z,59.60
2023-01-27T01:43:34.081Z,58.90
2023-01-27T01:44:34.054Z,59.90
2023-01-27T01:45:34.176Z,60.40
2023-01-27T01:46:34.112Z,61.10
2023-01-27T01:47:34.011Z,58.20
2023-01-27T01:48:34.006Z,60.90
2023-01-27T01:49:33.982Z,60.00
2023-01-27T01:50:34.010Z,56.20
2023-01-27T01:51:33.976Z,55.50
2023-01-27T01:52:33.943Z,59.50
2023-01-27T01:53:33.947Z,53.80
2023-01-27T01:54:33.936Z,57.80
2023-01-27T01:55:33.911Z,55.90
2023-01-27T01:56:33.909Z,57.20
2023-01-27T01:57:33.887Z,50.60
2023-01-27T01:58:33.865Z,54.90
2023-01-27T01:59:33.892Z,53.10
2023-01-27T02:00:33.846Z,51.10
2023-01-27T02:01:33.842Z,52.60
2023-01-27T02:02:33.920Z,54.10
2023-01-27T02:03:33.805Z,53.20
2023-01-27T02:04:33.791Z,47.70
2023-01-27T02:05:33.779Z,52.00
2023-01-27T02:06:33.779Z,51.60
2023-01-27T02:07:33.758Z,49.30
2023-01-27T02:08:33.741Z,51.90
2023-01-27T02:09:33.763Z,52.00
2023-01-27T02:10:33.708Z,48.40
2023-01-27T02:11:33.773Z,48.20
2023-01-27T02:12:33.693Z,48.30
2023-01-27T02:13:33.677Z,49.40
2023-01-27T02:14:33.665Z,48.20
2023-01-27T02:15:33.728Z,48.70
2023-01-27T02:16:33.702Z,45.70
2023-01-27T02:17:33.626Z,50.40
2023-01-27T02:18:33.613Z,46.40
2023-01-27T02:19:33.598Z,46.30
2023-01-27T02:20:33.592Z,46.70
2023-01-27T02:21:33.595Z,50.10
2023-01-27T02:22:33.579Z,53.10
2023-01-27T02:23:33.546Z,48.00
2023-01-27T02:24:33.537Z,48.00
2023-01-27T02:25:33.524Z,50.50
2023-01-27T02:26:33.531Z,51.30
2023-01-27T02:27:33.503Z,46.80
2023-01-27T02:28:33.487Z,51.80
2023-01-27T02:29:33.472Z,50.30
2023-01-27T02:30:33.502Z,51.30
2023-01-27T02:31:33.626Z,51.20
2023-01-27T02:32:33.435Z,50.90
2023-01-27T02:33:33.432Z,52.00
2023-01-27T02:34:33.412Z,51.40
2023-01-27T02:35:33.396Z,48.40
2023-01-27T02:36:33.402Z,50.60
2023-01-27T02:37:33.372Z,52.40
2023-01-27T02:38:33.354Z,51.90
2023-01-27T02:39:33.345Z,54.50
2023-01-27T02:40:33.327Z,49.10
2023-01-27T02:41:33.332Z,47.60
2023-01-27T02:42:33.301Z,50.70
2023-01-27T02:43:33.306Z,47.30
2023-01-27T02:44:33.275Z,45.30
2023-01-27T02:45:33.263Z,46.60
2023-01-27T02:46:33.286Z,44.70
2023-01-27T02:47:33.264Z,51.80
2023-01-27T02:48:33.226Z,49.30
2023-01-27T02:49:33.211Z,50.10
2023-01-27T02:50:33.232Z,46.90
2023-01-27T02:51:33.221Z,50.60
2023-01-27T02:52:33.208Z,46.30
2023-01-27T02:53:33.163Z,49.10
2023-01-27T02:54:33.146Z,47.70
2023-01-27T02:55:33.137Z,48.50
2023-01-27T02:56:33.160Z,49.30
2023-01-27T02:57:33.128Z,43.90
2023-01-27T02:58:33.177Z,47.50
2023-01-27T02:59:33.086Z,50.20
2023-01-27T03:00:33.071Z,49.30
2023-01-27T03:01:33.090Z,48.10
2023-01-27T03:02:33.082Z,48.60
2023-01-27T03:03:33.058Z,49.30
2023-01-27T03:04:33.022Z,52.60
2023-01-27T03:05:33.024Z,46.70
2023-01-27T03:06:33.036Z,49.50
2023-01-27T03:07:32.997Z,47.50
2023-01-27T03:08:32.973Z,51.00
2023-01-27T03:09:32.953Z,47.00
2023-01-27T03:10:32.950Z,46.20
2023-01-27T03:11:32.948Z,45.20
2023-01-27T03:12:32.933Z,50.20
2023-01-27T03:13:32.907Z,50.40
2023-01-27T03:14:32.897Z,49.00
2023-01-27T03:15:32.899Z,50.10
2023-01-27T03:16:32.875Z,47.30
2023-01-27T03:17:32.871Z,47.00
2023-01-27T03:18:32.851Z,46.10
2023-01-27T03:19:32.965Z,47.10
2023-01-27T03:20:32.824Z,47.30
2023-01-27T03:21:32.799Z,48.00
2023-01-27T03:22:32.806Z,47.40
2023-01-27T03:23:32.789Z,48.30
2023-01-27T03:24:32.767Z,49.60
2023-01-27T03:25:32.771Z,52.70
2023-01-27T03:26:32.738Z,48.90
2023-01-27T03:27:32.747Z,53.70
2023-01-27T03:28:32.733Z,52.50
2023-01-27T03:29:32.700Z,54.70
2023-01-27T03:30:32.685Z,50.70
2023-01-27T03:31:32.758Z,50.00
2023-01-27T03:32:32.677Z,55.80
2023-01-27T03:33:32.687Z,52.30
2023-01-27T03:34:32.631Z,50.30
2023-01-27T03:35:32.686Z,51.60
2023-01-27T03:36:32.608Z,52.60
2023-01-27T03:37:32.783Z,49.00
2023-01-27T03:38:32.590Z,47.70
2023-01-27T03:39:32.583Z,52.80
2023-01-27T03:40:32.553Z,51.50
2023-01-27T03:41:32.558Z,49.70
2023-01-27T03:42:32.556Z,54.90
2023-01-27T03:43:32.563Z,54.00
2023-01-27T03:44:32.510Z,51.50
2023-01-27T03:45:32.541Z,49.90
2023-01-27T03:46:32.477Z,53.10
2023-01-27T03:47:32.479Z,48.20
2023-01-27T03:48:32.469Z,49.70
2023-01-27T03:49:32.467Z,51.30
2023-01-27T03:50:32.426Z,50.00
2023-01-27T03:51:32.432Z,50.50
2023-01-27T03:52:32.417Z,51.20
2023-01-27T03:53:32.393Z,52.60
2023-01-27T03:54:32.371Z,55.00
2023-01-27T03:55:32.369Z,51.40
2023-01-27T03:56:32.360Z,50.80
2023-01-27T03:57:32.353Z,50.40
2023-01-27T03:58:32.325Z,52.30
2023-01-27T03:59:32.316Z,48.50
2023-01-27T04:00:32.297Z,47.80
2023-01-27T04:01:32.336Z,47.60
2023-01-27T04:02:32.431Z,51.90
2023-01-27T04:03:32.281Z,48.50
2023-01-27T04:04:32.246Z,46.30
2023-01-27T04:05:32.233Z,49.10
2023-01-27T04:06:32.222Z,46.00
2023-01-27T04:07:32.230Z,46.10
2023-01-27T04:08:32.219Z,47.80
2023-01-27T04:09:32.189Z,48.50
2023-01-27T04:10:32.170Z,51.20
2023-01-27T04:11:32.155Z,50.20
2023-01-27T04:12:32.140Z,53.90
2023-01-27T04:13:32.152Z,52.80
2023-01-27T04:14:32.119Z,50.10
2023-01-27T04:15:32.119Z,49.90
2023-01-27T04:16:32.103Z,53.60
2023-01-27T04:17:32.078Z,49.00
2023-01-27T04:18:32.098Z,53.40
2023-01-27T04:19:32.061Z,47.60
2023-01-27T04:20:32.037Z,45.20
2023-01-27T04:21:32.029Z,50.10
2023-01-27T04:22:32.014Z,50.80
2023-01-27T04:23:32.038Z,48.70
2023-01-27T04:24:31.990Z,47.00
2023-01-27T04:25:31.975Z,47.40
2023-01-27T04:26:31.959Z,52.10
2023-01-27T04:27:31.953Z,52.40
2023-01-27T04:28:43.786Z,52.00
2023-01-27T04:29:32.935Z,50.40
2023-01-27T04:30:31.968Z,51.00
2023-01-27T04:31:31.912Z,53.10
2023-01-27T04:32:31.883Z,47.30
2023-01-27T04:33:31.932Z,51.30
2023-01-27T04:34:31.866Z,51.70
2023-01-27T04:35:38.549Z,49.40
2023-01-27T04:36:31.834Z,46.90
2023-01-27T04:37:31.821Z,50.00
2023-01-27T04:38:31.829Z,45.30
2023-01-27T04:39:31.819Z,48.30
2023-01-27T04:40:31.799Z,46.90
2023-01-27T04:41:31.778Z,44.40
2023-01-27T04:42:31.756Z,43.80
2023-01-27T04:43:31.766Z,44.20
2023-01-27T04:44:31.747Z,42.30
2023-01-27T04:45:31.739Z,44.00
2023-01-27T04:46:31.711Z,40.90
2023-01-27T04:47:31.695Z,39.20
2023-01-27T04:48:31.714Z,36.80
2023-01-27T04:49:31.681Z,40.50
2023-01-27T04:50:31.656Z,40.20
2023-01-27T04:51:31.639Z,38.80
2023-01-27T04:52:31.628Z,39.20
2023-01-27T04:53:31.624Z,41.10
2023-01-27T04:54:31.628Z,38.80
2023-01-27T04:55:31.608Z,39.80
2023-01-27T04:56:31.610Z,38.10
2023-01-27T04:57:31.574Z,38.80
2023-01-27T04:58:31.555Z,37.00
2023-01-27T04:59:31.560Z,39.90
2023-01-27T05:00:31.539Z,36.30
2023-01-27T05:01:31.581Z,38.00
2023-01-27T05:02:31.504Z,37.60
2023-01-27T05:03:31.496Z,38.40
2023-01-27T05:04:31.489Z,35.10
2023-01-27T05:05:31.462Z,37.70
2023-01-27T05:06:31.454Z,38.40
2023-01-27T05:07:32.320Z,37.00
2023-01-27T05:08:31.424Z,35.00
2023-01-27T05:09:31.437Z,33.70
2023-01-27T05:10:31.398Z,32.60
2023-01-27T05:11:31.404Z,34.30
2023-01-27T05:12:31.386Z,33.20
2023-01-27T05:13:31.381Z,30.70
2023-01-27T05:14:31.369Z,32.90
2023-01-27T05:15:31.426Z,33.10
2023-01-27T05:16:31.360Z,31.70
2023-01-27T05:17:31.309Z,31.80
2023-01-27T05:18:31.341Z,31.70
2023-01-27T05:19:31.301Z,29.90
2023-01-27T05:20:31.292Z,29.50
2023-01-27T05:21:31.267Z,29.40
2023-01-27T05:22:31.244Z,28.80
2023-01-27T05:23:31.233Z,30.60
2023-01-27T05:24:31.302Z,30.30
2023-01-27T05:25:31.206Z,31.80
2023-01-27T05:26:31.197Z,32.80
2023-01-27T05:27:31.231Z,31.80
2023-01-27T05:28:31.184Z,33.00
2023-01-27T05:29:31.175Z,33.00
2023-01-27T05:30:31.159Z,31.90
2023-01-27T05:31:31.291Z,32.70
2023-01-27T05:32:31.118Z,32.40
2023-01-27T05:33:31.110Z,32.30
2023-01-27T05:34:31.111Z,29.20
2023-01-27T05:35:31.074Z,29.80
2023-01-27T05:36:31.061Z,32.20
2023-01-27T05:37:31.047Z,32.20
2023-01-27T05:38:31.048Z,32.20
2023-01-27T05:39:31.042Z,31.90
2023-01-27T05:40:31.016Z,30.00
2023-01-27T05:41:31.071Z,29.90
2023-01-27T05:42:30.993Z,30.50
2023-01-27T05:43:30.994Z,27.30
2023-01-27T05:44:30.979Z,28.00
2023-01-27T05:45:30.954Z,28.30
2023-01-27T05:46:31.002Z,30.90
2023-01-27T05:47:30.920Z,29.20
2023-01-27T05:48:30.922Z,28.60
2023-01-27T05:49:30.931Z,26.80
2023-01-27T05:50:30.884Z,26.00
2023-01-27T05:51:30.887Z,27.40
2023-01-27T05:52:30.869Z,26.50
2023-01-27T05:53:30.854Z,26.40
2023-01-27T05:54:30.866Z,25.70
2023-01-27T05:55:30.819Z,25.90
2023-01-27T05:56:30.813Z,27.30
2023-01-27T05:57:30.799Z,25.80
2023-01-27T05:58:30.783Z,27.70
2023-01-27T05:59:30.806Z,26.40
2023-01-27T06:00:30.758Z,24.90
2023-01-27T06:01:30.827Z,25.00
2023-01-27T06:02:30.820Z,24.40
2023-01-27T06:03:30.716Z,23.70
2023-01-27T06:04:30.722Z,25.10
2023-01-27T06:05:30.694Z,26.40
2023-01-27T06:06:30.678Z,26.40
2023-01-27T06:07:30.664Z,24.80
2023-01-27T06:08:30.685Z,25.80
2023-01-27T06:09:30.655Z,26.80
2023-01-27T06:10:30.636Z,25.70
2023-01-27T06:11:30.626Z,24.60
2023-01-27T06:12:30.621Z,25.60
2023-01-27T06:13:30.597Z,25.40
2023-01-27T06:14:30.591Z,24.30
2023-01-27T06:15:30.590Z,25.00
2023-01-27T06:16:30.656Z,22.70
2023-01-27T06:17:30.539Z,23.60
2023-01-27T06:18:30.533Z,21.50
2023-01-27T06:19:30.535Z,18.50
2023-01-27T06:20:30.511Z,20.90
2023-01-27T06:21:30.505Z,19.10
2023-01-27T06:22:30.502Z,21.40
2023-01-27T06:23:30.474Z,20.70
2023-01-27T06:24:30.491Z,22.80
2023-01-27T06:25:30.456Z,23.70
2023-01-27T06:26:30.429Z,20.60
2023-01-27T06:27:30.418Z,21.30
2023-01-27T06:28:30.436Z,22.00
2023-01-27T06:29:30.390Z,21.00
2023-01-27T06:30:30.388Z,21.50
2023-01-27T06:31:30.491Z,19.50
2023-01-27T06:32:30.355Z,22.40
2023-01-27T06:33:30.338Z,24.70
2023-01-27T06:34:30.329Z,24.20
2023-01-27T06:35:30.324Z,22.70
2023-01-27T06:36:30.300Z,21.90
2023-01-27T06:37:30.285Z,20.80
2023-01-27T06:38:30.281Z,21.10
2023-01-27T06:39:30.258Z,19.70
2023-01-27T06:40:30.265Z,20.00
2023-01-27T06:41:30.235Z,18.80
2023-01-27T06:42:30.220Z,18.30
2023-01-27T06:43:30.218Z,19.00
2023-01-27T06:44:30.199Z,16.80
2023-01-27T06:45:30.201Z,18.60
2023-01-27T06:46:30.247Z,18.60
2023-01-27T06:47:30.177Z,16.00
2023-01-27T06:48:30.150Z,17.60
2023-01-27T06:49:30.134Z,14.60
2023-01-27T06:50:30.140Z,16.20
2023-01-27T06:51:30.114Z,15.30
2023-01-27T06:52:30.097Z,15.90
2023-01-27T06:53:30.081Z,15.50
2023-01-27T06:54:30.086Z,13.60
2023-01-27T06:55:30.076Z,14.80
2023-01-27T06:56:30.048Z,12.40
2023-01-27T06:57:30.032Z,14.30
2023-01-27T06:58:30.022Z,13.20
2023-01-27T06:59:30.005Z,14.90
2023-01-27T07:00:30.098Z,15.40
2023-01-27T07:01:30.087Z,12.80
2023-01-27T07:02:30.004Z,14.30
2023-01-27T07:03:29.983Z,14.00
2023-01-27T07:04:29.957Z,14.20
2023-01-27T07:05:29.959Z,14.40
2023-01-27T07:06:29.919Z,13.20
2023-01-27T07:07:29.907Z,13.60
2023-01-27T07:08:29.905Z,14.20
2023-01-27T07:09:32.158Z,16.30
2023-01-27T07:10:29.977Z,14.30
2023-01-27T07:11:29.859Z,16.00
2023-01-27T07:12:29.844Z,16.60
2023-01-27T07:13:29.832Z,16.20
2023-01-27T07:14:29.823Z,17.80
2023-01-27T07:15:29.821Z,16.20
2023-01-27T07:16:29.878Z,15.60
2023-01-27T07:17:29.779Z,15.30
2023-01-27T07:18:29.779Z,16.40
2023-01-27T07:19:29.789Z,15.60
2023-01-27T07:20:29.811Z,15.00
2023-01-27T07:21:29.775Z,16.60
2023-01-27T07:22:29.722Z,15.10
2023-01-27T07:23:29.715Z,15.90
2023-01-27T07:24:29.694Z,16.00
2023-01-27T07:25:29.741Z,17.90
2023-01-27T07:26:29.670Z,15.30
2023-01-27T07:27:29.667Z,17.10
2023-01-27T07:28:29.650Z,17.50
2023-01-27T07:29:29.628Z,17.30
2023-01-27T07:30:29.770Z,19.30
2023-01-27T07:31:29.708Z,17.80
2023-01-27T07:32:29.597Z,18.70
2023-01-27T07:33:29.631Z,19.10
2023-01-27T07:34:29.568Z,18.00
2023-01-27T07:35:29.575Z,20.40
2023-01-27T07:36:29.561Z,18.50
2023-01-27T07:37:29.526Z,17.40
2023-01-27T07:38:29.515Z,19.10
2023-01-27T07:39:29.506Z,18.20
2023-01-27T07:40:29.504Z,19.60
2023-01-27T07:41:29.493Z,19.60
2023-01-27T07:42:29.466Z,19.80
2023-01-27T07:43:29.453Z,16.00
2023-01-27T07:44:29.447Z,18.80
2023-01-27T07:45:29.504Z,19.10
2023-01-27T07:46:29.438Z,17.60
2023-01-27T07:47:29.402Z,18.10
2023-01-27T07:48:29.390Z,18.50
2023-01-27T07:49:29.412Z,20.00
2023-01-27T07:50:29.370Z,21.00
2023-01-27T07:51:29.426Z,20.10
2023-01-27T07:52:29.345Z,21.50
2023-01-27T07:53:29.334Z,21.60
2023-01-27T07:54:29.316Z,22.60
2023-01-27T07:55:29.303Z,20.00
2023-01-27T07:56:29.314Z,19.70
2023-01-27T07:57:29.279Z,19.50
2023-01-27T07:58:29.296Z,17.80
2023-01-27T07:59:29.252Z,19.40
2023-01-27T08:00:29.244Z,18.20
2023-01-27T08:01:29.265Z,17.60
2023-01-27T08:02:29.237Z,19.30
2023-01-27T08:03:29.220Z,17.00
2023-01-27T08:04:30.389Z,19.20
2023-01-27T08:05:29.183Z,18.00
2023-01-27T08:06:29.188Z,17.10
2023-01-27T08:07:29.179Z,20.30
2023-01-27T08:08:29.143Z,19.50
2023-01-27T08:09:29.123Z,20.00
2023-01-27T08:10:29.120Z,21.20
2023-01-27T08:11:29.118Z,21.90
2023-01-27T08:12:29.093Z,22.50
2023-01-27T08:13:29.111Z,24.40
2023-01-27T08:14:29.073Z,21.00
2023-01-27T08:15:29.053Z,19.00
2023-01-27T08:16:29.120Z,18.90
2023-01-27T08:17:29.027Z,18.60
2023-01-27T08:18:29.013Z,20.10
2023-01-27T08:19:29.004Z,17.50
2023-01-27T08:20:28.989Z,18.60
2023-01-27T08:21:29.004Z,18.30
2023-01-27T08:22:28.968Z,19.70
2023-01-27T08:23:28.981Z,18.70
2023-01-27T08:24:29.140Z,18.10
2023-01-27T08:25:28.929Z,20.70
2023-01-27T08:26:28.916Z,20.30
2023-01-27T08:27:28.911Z,19.20
2023-01-27T08:28:28.891Z,18.50
2023-01-27T08:29:28.874Z,19.30
2023-01-27T08:30:28.919Z,19.30
2023-01-27T08:31:28.902Z,19.00
2023-01-27T08:32:28.852Z,19.50
2023-01-27T08:33:28.825Z,32.30
2023-01-27T08:34:28.811Z,28.10
2023-01-27T08:35:28.799Z,25.70
2023-01-27T08:36:28.789Z,27.00
2023-01-27T08:37:28.786Z,29.90
2023-01-27T08:38:28.762Z,27.50
2023-01-27T08:39:28.769Z,24.30
2023-01-27T08:40:28.740Z,25.30
2023-01-27T08:41:28.722Z,22.50
2023-01-27T08:42:28.732Z,20.50
2023-01-27T08:43:28.702Z,22.60
2023-01-27T08:44:28.689Z,22.30
2023-01-27T08:45:28.676Z,17.00
2023-01-27T08:46:28.664Z,18.30
2023-01-27T08:47:28.663Z,19.20
2023-01-27T08:48:28.641Z,17.30
2023-01-27T08:49:28.624Z,18.40
2023-01-27T08:50:28.618Z,16.70
2023-01-27T08:51:28.596Z,17.20
2023-01-27T08:52:28.605Z,16.60
2023-01-27T08:53:28.574Z,18.80
2023-01-27T08:54:28.559Z,19.00
2023-01-27T08:55:28.567Z,18.70
2023-01-27T08:56:28.539Z,19.60
2023-01-27T08:57:28.535Z,17.90
2023-01-27T08:58:28.511Z,19.00
2023-01-27T08:59:28.500Z,19.50
2023-01-27T09:00:28.484Z,18.30
2023-01-27T09:01:28.558Z,18.30
2023-01-27T09:02:28.478Z,19.80
2023-01-27T09:03:28.447Z,18.80
2023-01-27T09:04:28.480Z,18.90
2023-01-27T09:05:28.417Z,20.00
2023-01-27T09:06:28.411Z,18.80
2023-01-27T09:07:28.416Z,17.20
2023-01-27T09:08:28.393Z,18.10
2023-01-27T09:09:28.373Z,16.80
2023-01-27T09:10:28.361Z,16.70
2023-01-27T09:11:28.366Z,15.00
2023-01-27T09:12:28.347Z,15.20
2023-01-27T09:13:28.319Z,13.70
2023-01-27T09:14:28.308Z,14.30
2023-01-27T09:15:28.295Z,13.10
2023-01-27T09:16:28.333Z,16.60
2023-01-27T09:17:28.289Z,14.70
2023-01-27T09:18:28.255Z,15.60
2023-01-27T09:19:28.250Z,14.50
2023-01-27T09:20:28.229Z,13.70
2023-01-27T09:21:28.216Z,13.60
2023-01-27T09:22:28.244Z,14.00
2023-01-27T09:23:28.201Z,13.80
2023-01-27T09:24:28.232Z,12.70
2023-01-27T09:25:28.172Z,14.20
2023-01-27T09:26:28.158Z,15.00
2023-01-27T09:27:38.672Z,13.60
2023-01-27T09:28:29.129Z,14.30
2023-01-27T09:29:28.117Z,12.10
2023-01-27T09:30:28.109Z,12.80
2023-01-27T09:31:28.221Z,14.30
2023-01-27T09:32:28.100Z,13.10
2023-01-27T09:33:28.076Z,13.90
2023-01-27T09:34:28.051Z,13.70
2023-01-27T09:35:28.041Z,14.30
2023-01-27T09:36:28.032Z,14.30
2023-01-27T09:37:28.091Z,15.10
2023-01-27T09:38:28.009Z,13.30
2023-01-27T09:39:27.993Z,12.20
2023-01-27T09:40:28.008Z,11.60
2023-01-27T09:41:27.966Z,12.60
2023-01-27T09:42:27.971Z,10.70
2023-01-27T09:43:27.967Z,12.00
2023-01-27T09:44:27.935Z,13.40
2023-01-27T09:45:27.926Z,11.00
2023-01-27T09:46:28.024Z,11.40
2023-01-27T09:47:27.894Z,12.00
2023-01-27T09:48:27.889Z,12.70
2023-01-27T09:49:27.866Z,12.00
2023-01-27T09:50:27.856Z,12.60
2023-01-27T09:51:27.844Z,11.40
2023-01-27T09:52:41.823Z,10.00
2023-01-27T09:53:27.839Z,11.30
2023-01-27T09:54:27.807Z,11.70
2023-01-27T09:55:27.821Z,9.40
2023-01-27T09:56:27.778Z,7.80
2023-01-27T09:57:27.766Z,9.80
2023-01-27T09:58:27.771Z,10.20
2023-01-27T09:59:27.773Z,8.20
2023-01-27T10:00:27.727Z,8.60
2023-01-27T10:01:27.743Z,8.60
2023-01-27T10:02:27.698Z,9.90
2023-01-27T10:03:27.714Z,8.70
2023-01-27T10:04:27.764Z,8.90
2023-01-27T10:05:27.666Z,9.00
2023-01-27T10:06:27.651Z,10.00
2023-01-27T10:07:27.639Z,8.50
2023-01-27T10:08:27.639Z,8.80
2023-01-27T10:09:27.613Z,9.70
2023-01-27T10:10:27.604Z,9.10
2023-01-27T10:11:27.594Z,8.90
2023-01-27T10:12:27.583Z,8.10
2023-01-27T10:13:27.578Z,8.90
2023-01-27T10:14:27.549Z,8.90
2023-01-27T10:15:27.556Z,10.00
2023-01-27T10:16:27.616Z,8.20
2023-01-27T10:17:27.517Z,9.70
2023-01-27T10:18:27.516Z,8.90
2023-01-27T10:19:27.487Z,8.50
2023-01-27T10:20:27.473Z,9.60
2023-01-27T10:21:27.458Z,9.10
2023-01-27T10:22:27.444Z,8.40
2023-01-27T10:23:27.447Z,7.80
2023-01-27T10:24:27.505Z,8.60
2023-01-27T10:25:27.416Z,7.70
2023-01-27T10:26:27.393Z,8.30
2023-01-27T10:27:27.381Z,8.90
2023-01-27T10:28:27.390Z,9.40
2023-01-27T10:29:27.358Z,8.10
2023-01-27T10:30:27.356Z,7.00
2023-01-27T10:31:27.403Z,7.60
2023-01-27T10:32:27.327Z,6.90
2023-01-27T10:33:28.619Z,6.60
2023-01-27T10:34:27.291Z,6.80
2023-01-27T10:35:27.279Z,7.30
2023-01-27T10:36:27.264Z,6.40
2023-01-27T10:37:27.250Z,6.60
2023-01-27T10:38:27.269Z,6.90
2023-01-27T10:39:27.234Z,6.40
2023-01-27T10:40:27.207Z,5.90
2023-01-27T10:41:27.198Z,6.30
2023-01-27T10:42:27.184Z,6.80
2023-01-27T10:43:27.194Z,5.70
2023-01-27T10:44:27.158Z,5.80
2023-01-27T10:45:27.201Z,6.30
2023-01-27T10:46:27.159Z,5.70
2023-01-27T10:47:27.142Z,6.70
2023-01-27T10:48:27.120Z,6.00
2023-01-27T10:49:27.097Z,6.80
2023-01-27T10:50:27.097Z,7.20
2023-01-27T10:51:27.076Z,6.10
2023-01-27T10:52:27.064Z,7.50
2023-01-27T10:53:27.061Z,8.60
2023-01-27T10:54:27.029Z,9.20
2023-01-27T10:55:27.029Z,7.30
2023-01-27T10:56:27.003Z,7.80
2023-01-27T10:57:26.996Z,7.00
2023-01-27T10:58:26.997Z,6.40
2023-01-27T10:59:26.965Z,6.70
2023-01-27T11:00:51.858Z,6.80
2023-01-27T11:01:28.583Z,6.20
2023-01-27T11:02:26.922Z,5.60
2023-01-27T11:03:26.931Z,6.10
2023-01-27T11:04:26.995Z,6.70
2023-01-27T11:05:26.883Z,6.00
2023-01-27T11:06:26.879Z,6.00
2023-01-27T11:07:26.870Z,7.00
2023-01-27T11:08:26.862Z,7.40
2023-01-27T11:09:26.870Z,7.10
2023-01-27T11:10:26.825Z,6.40
2023-01-27T11:11:26.815Z,5.50
2023-01-27T11:12:26.791Z,5.20
2023-01-27T11:13:26.791Z,6.30
2023-01-27T11:14:26.792Z,6.30
2023-01-27T11:15:26.763Z,5.30
2023-01-27T11:16:26.776Z,5.90
2023-01-27T11:17:26.728Z,6.10
2023-01-27T11:18:26.719Z,5.40
2023-01-27T11:19:26.740Z,4.70
2023-01-27T11:20:26.693Z,4.90
2023-01-27T11:21:26.688Z,3.70
2023-01-27T11:22:26.664Z,3.30
2023-01-27T11:23:26.661Z,3.00
2023-01-27T11:24:26.705Z,3.40
2023-01-27T11:25:26.639Z,2.70
2023-01-27T11:26:26.616Z,3.00
2023-01-27T11:27:26.619Z,2.80
2023-01-27T11:28:26.592Z,4.20
2023-01-27T11:29:26.592Z,3.50
2023-01-27T11:30:26.681Z,3.60
2023-01-27T11:31:26.686Z,2.80
2023-01-27T11:32:26.532Z,2.40
2023-01-27T11:33:26.522Z,2.50
2023-01-27T11:34:26.533Z,2.40
2023-01-27T11:35:26.518Z,2.90
2023-01-27T11:36:26.519Z,2.30
2023-01-27T11:37:26.470Z,2.30
2023-01-27T11:38:26.464Z,2.90
2023-01-27T11:39:26.457Z,2.80
2023-01-27T11:40:26.433Z,2.50
2023-01-27T11:41:26.421Z,2.60
2023-01-27T11:42:26.405Z,2.40
2023-01-27T11:43:26.404Z,2.30
2023-01-27T11:44:26.392Z,2.90
2023-01-27T11:45:26.377Z,4.80
2023-01-27T11:46:26.374Z,2.60
2023-01-27T11:47:26.351Z,2.60
2023-01-27T11:48:26.327Z,2.90
2023-01-27T11:49:26.350Z,2.70
2023-01-27T11:50:26.298Z,3.00
2023-01-27T11:51:26.400Z,6.70
2023-01-27T11:52:26.277Z,7.30
2023-01-27T11:53:26.263Z,3.40
2023-01-27T11:54:26.262Z,3.50
2023-01-27T11:55:26.278Z,3.00
2023-01-27T11:56:26.217Z,2.70
2023-01-27T11:57:26.210Z,2.30
2023-01-27T11:58:26.197Z,2.20
2023-01-27T11:59:26.200Z,2.00
2023-01-27T12:00:26.170Z,2.40
2023-01-27T12:01:26.153Z,2.10
2023-01-27T12:02:26.152Z,2.90
2023-01-27T12:03:26.164Z,2.50
2023-01-27T12:04:26.154Z,5.70
2023-01-27T12:05:26.111Z,5.10
2023-01-27T12:06:26.090Z,5.10
2023-01-27T12:07:26.131Z,3.90
2023-01-27T12:08:26.074Z,3.60
2023-01-27T12:09:26.065Z,2.70
2023-01-27T12:10:26.063Z,2.10
2023-01-27T12:11:26.060Z,2.10
2023-01-27T12:12:26.016Z,2.20
2023-01-27T12:13:26.002Z,2.30
2023-01-27T12:14:25.994Z,2.30
2023-01-27T12:15:26.014Z,1.90
2023-01-27T12:16:25.996Z,1.90
2023-01-27T12:17:25.944Z,2.10
2023-01-27T12:18:25.928Z,1.90
2023-01-27T12:19:25.931Z,1.90
2023-01-27T12:20:25.922Z,2.20
2023-01-27T12:21:25.897Z,2.00
2023-01-27T12:22:25.879Z,1.80
2023-01-27T12:23:25.890Z,2.10
2023-01-27T12:24:25.921Z,1.60
2023-01-27T12:25:25.865Z,2.00
2023-01-27T12:26:25.827Z,2.80
2023-01-27T12:27:25.817Z,1.70
2023-01-27T12:28:25.800Z,1.80
2023-01-27T12:29:25.788Z,2.60
2023-01-27T12:30:25.805Z,2.00
2023-01-27T12:31:25.873Z,1.80
2023-01-27T12:32:25.753Z,2.00
2023-01-27T12:33:25.738Z,1.80
2023-01-27T12:34:25.723Z,5.20
2023-01-27T12:35:25.728Z,9.90
2023-01-27T12:36:25.702Z,13.80
2023-01-27T12:37:25.688Z,6.30
2023-01-27T12:38:25.669Z,2.90
2023-01-27T12:39:25.679Z,2.40
2023-01-27T12:40:25.673Z,15.90
2023-01-27T12:41:25.635Z,39.80
2023-01-27T12:42:25.618Z,53.20
2023-01-27T12:43:25.611Z,20.10
2023-01-27T12:44:25.593Z,7.80
2023-01-27T12:45:25.593Z,3.70
2023-01-27T12:46:25.685Z,1.50
2023-01-27T12:47:25.580Z,1.60
2023-01-27T12:48:25.539Z,1.40
2023-01-27T12:49:25.532Z,1.70
2023-01-27T12:50:25.535Z,2.00
2023-01-27T12:51:25.504Z,1.70
2023-01-27T12:52:25.488Z,2.40
2023-01-27T12:53:27.142Z,1.60
2023-01-27T12:54:25.471Z,7.40
2023-01-27T12:55:25.505Z,3.50
2023-01-27T12:56:25.443Z,1.60
2023-01-27T12:57:25.430Z,2.00
2023-01-27T12:58:25.412Z,3.10